sensor_id;sensor_type;location;lat;lon;timestamp;P1;durP1;ratioP1;P2;durP2;ratioP2
55037;SDS011;40937;53.594;10.034;2023-06-26T00:01:40;9.15;;;8.38;;
55037;SDS011;40937;53.594;10.034;2023-06-26T00:04:08;9.05;;;8.25;;
55037;SDS011;40937;53.594;10.034;2023-06-26T00:06:40;9.60;;;8.93;;
55037;SDS011;40937;53.594;10.034;2023-06-26T00:09:08;9.07;;;8.30;;
55037;SDS011;40937;53.594;10.034;2023-06-26T00:11:36;9.38;;;7.88;;
55037;SDS011;40937;53.594;10.034;2023-06-26T00:14:03;9.07;;;8.38;;
55037;SDS011;40937;53.594;10.034;2023-06-26T00:16:30;9.68;;;8.88;;
55037;SDS011;40937;53.594;10.034;2023-06-26T00:19:00;8.52;;;8.02;;
55037;SDS011;40937;53.594;10.034;2023-06-26T00:21:27;9.48;;;8.77;;
55037;SDS011;40937;53.594;10.034;2023-06-26T00:23:55;9.50;;;8.90;;
55037;SDS011;40937;53.594;10.034;2023-06-26T00:26:23;9.38;;;8.60;;
55037;SDS011;40937;53.594;10.034;2023-06-26T00:28:50;10.25;;;9.35;;
55037;SDS011;40937;53.594;10.034;2023-06-26T00:31:19;8.63;;;8.13;;
55037;SDS011;40937;53.594;10.034;2023-06-26T00:33:46;9.55;;;8.63;;
55037;SDS011;40937;53.594;10.034;2023-06-26T00:36:13;9.13;;;8.18;;
55037;SDS011;40937;53.594;10.034;2023-06-26T00:38:41;10.18;;;8.75;;
55037;SDS011;40937;53.594;10.034;2023-06-26T00:41:08;8.63;;;8.02;;
55037;SDS011;40937;53.594;10.034;2023-06-26T00:43:40;8.95;;;8.15;;
55037;SDS011;40937;53.594;10.034;2023-06-26T00:46:10;9.27;;;8.48;;
55037;SDS011;40937;53.594;10.034;2023-06-26T00:48:41;8.95;;;8.25;;
55037;SDS011;40937;53.594;10.034;2023-06-26T00:51:09;9.13;;;8.43;;
55037;SDS011;40937;53.594;10.034;2023-06-26T00:53:37;9.00;;;8.30;;
55037;SDS011;40937;53.594;10.034;2023-06-26T00:56:05;15.65;;;8.45;;
55037;SDS011;40937;53.594;10.034;2023-06-26T00:58:35;9.43;;;8.48;;
55037;SDS011;40937;53.594;10.034;2023-06-26T01:01:03;9.30;;;8.60;;
55037;SDS011;40937;53.594;10.034;2023-06-26T01:03:34;8.82;;;8.18;;
55037;SDS011;40937;53.594;10.034;2023-06-26T01:06:02;9.23;;;8.32;;
55037;SDS011;40937;53.594;10.034;2023-06-26T01:08:31;9.10;;;8.50;;
55037;SDS011;40937;53.594;10.034;2023-06-26T01:10:59;9.80;;;9.07;;
55037;SDS011;40937;53.594;10.034;2023-06-26T01:13:26;8.55;;;8.00;;
55037;SDS011;40937;53.594;10.034;2023-06-26T01:15:55;10.32;;;9.40;;
55037;SDS011;40937;53.594;10.034;2023-06-26T01:18:25;9.45;;;8.73;;
55037;SDS011;40937;53.594;10.034;2023-06-26T01:20:53;9.45;;;8.40;;
55037;SDS011;40937;53.594;10.034;2023-06-26T01:23:29;8.70;;;8.10;;
55037;SDS011;40937;53.594;10.034;2023-06-26T01:26:10;8.90;;;8.35;;
55037;SDS011;40937;53.594;10.034;2023-06-26T01:28:42;8.90;;;8.20;;
55037;SDS011;40937;53.594;10.034;2023-06-26T01:31:10;9.13;;;8.52;;
55037;SDS011;40937;53.594;10.034;2023-06-26T01:33:38;9.40;;;8.50;;
55037;SDS011;40937;53.594;10.034;2023-06-26T01:36:06;9.35;;;8.65;;
55037;SDS011;40937;53.594;10.034;2023-06-26T01:38:35;9.25;;;8.50;;
55037;SDS011;40937;53.594;10.034;2023-06-26T01:41:05;9.15;;;8.48;;
55037;SDS011;40937;53.594;10.034;2023-06-26T01:43:36;8.95;;;8.30;;
55037;SDS011;40937;53.594;10.034;2023-06-26T01:46:15;8.98;;;8.20;;
55037;SDS011;40937;53.594;10.034;2023-06-26T01:48:50;9.65;;;8.73;;
55037;SDS011;40937;53.594;10.034;2023-06-26T01:51:24;9.20;;;8.50;;
55037;SDS011;40937;53.594;10.034;2023-06-26T01:53:56;8.95;;;8.30;;
55037;SDS011;40937;53.594;10.034;2023-06-26T01:56:26;8.85;;;8.07;;
55037;SDS011;40937;53.594;10.034;2023-06-26T01:58:57;9.57;;;8.88;;
55037;SDS011;40937;53.594;10.034;2023-06-26T02:01:26;9.48;;;8.70;;
55037;SDS011;40937;53.594;10.034;2023-06-26T02:03:54;9.02;;;8.27;;
55037;SDS011;40937;53.594;10.034;2023-06-26T02:06:22;8.77;;;8.02;;
55037;SDS011;40937;53.594;10.034;2023-06-26T02:08:51;9.48;;;8.68;;
55037;SDS011;40937;53.594;10.034;2023-06-26T02:11:18;8.95;;;7.97;;
55037;SDS011;40937;53.594;10.034;2023-06-26T02:13:46;9.18;;;8.30;;
55037;SDS011;40937;53.594;10.034;2023-06-26T02:16:14;8.80;;;7.90;;
55037;SDS011;40937;53.594;10.034;2023-06-26T02:18:42;10.00;;;9.05;;
55037;SDS011;40937;53.594;10.034;2023-06-26T02:21:10;9.77;;;8.98;;
55037;SDS011;40937;53.594;10.034;2023-06-26T02:23:37;9.07;;;8.38;;
55037;SDS011;40937;53.594;10.034;2023-06-26T02:26:04;8.55;;;7.88;;
55037;SDS011;40937;53.594;10.034;2023-06-26T02:28:33;8.93;;;8.13;;
55037;SDS011;40937;53.594;10.034;2023-06-26T02:31:00;9.32;;;8.50;;
55037;SDS011;40937;53.594;10.034;2023-06-26T02:33:29;8.88;;;8.05;;
55037;SDS011;40937;53.594;10.034;2023-06-26T02:35:56;8.82;;;8.02;;
55037;SDS011;40937;53.594;10.034;2023-06-26T02:38:23;9.25;;;8.35;;
55037;SDS011;40937;53.594;10.034;2023-06-26T02:40:50;9.85;;;8.35;;
55037;SDS011;40937;53.594;10.034;2023-06-26T02:43:17;8.45;;;7.75;;
55037;SDS011;40937;53.594;10.034;2023-06-26T02:45:44;9.18;;;8.18;;
55037;SDS011;40937;53.594;10.034;2023-06-26T02:48:12;9.55;;;8.60;;
55037;SDS011;40937;53.594;10.034;2023-06-26T02:50:43;8.80;;;8.05;;
55037;SDS011;40937;53.594;10.034;2023-06-26T02:53:13;8.07;;;7.57;;
55037;SDS011;40937;53.594;10.034;2023-06-26T02:55:44;8.43;;;7.63;;
55037;SDS011;40937;53.594;10.034;2023-06-26T02:58:14;7.88;;;7.28;;
55037;SDS011;40937;53.594;10.034;2023-06-26T03:00:41;8.52;;;7.68;;
55037;SDS011;40937;53.594;10.034;2023-06-26T03:03:13;8.27;;;7.68;;
55037;SDS011;40937;53.594;10.034;2023-06-26T03:05:40;7.43;;;7.03;;
55037;SDS011;40937;53.594;10.034;2023-06-26T03:08:08;8.38;;;7.75;;
55037;SDS011;40937;53.594;10.034;2023-06-26T03:10:35;7.47;;;6.90;;
55037;SDS011;40937;53.594;10.034;2023-06-26T03:13:03;8.02;;;7.43;;
55037;SDS011;40937;53.594;10.034;2023-06-26T03:15:30;8.82;;;7.55;;
55037;SDS011;40937;53.594;10.034;2023-06-26T03:17:57;8.18;;;7.50;;
55037;SDS011;40937;53.594;10.034;2023-06-26T03:20:27;7.28;;;6.78;;
55037;SDS011;40937;53.594;10.034;2023-06-26T03:22:56;8.23;;;7.55;;
55037;SDS011;40937;53.594;10.034;2023-06-26T03:25:25;8.13;;;7.53;;
55037;SDS011;40937;53.594;10.034;2023-06-26T03:28:13;7.45;;;6.97;;
55037;SDS011;40937;53.594;10.034;2023-06-26T03:30:41;7.20;;;6.75;;
55037;SDS011;40937;53.594;10.034;2023-06-26T03:33:08;7.82;;;7.22;;
55037;SDS011;40937;53.594;10.034;2023-06-26T03:35:35;6.93;;;6.32;;
55037;SDS011;40937;53.594;10.034;2023-06-26T03:38:03;9.45;;;6.57;;
55037;SDS011;40937;53.594;10.034;2023-06-26T03:40:32;7.60;;;6.85;;
55037;SDS011;40937;53.594;10.034;2023-06-26T03:42:59;7.72;;;7.18;;
55037;SDS011;40937;53.594;10.034;2023-06-26T03:45:26;7.53;;;7.03;;
55037;SDS011;40937;53.594;10.034;2023-06-26T03:47:54;9.95;;;7.10;;
55037;SDS011;40937;53.594;10.034;2023-06-26T03:50:21;8.20;;;7.50;;
55037;SDS011;40937;53.594;10.034;2023-06-26T03:52:50;7.60;;;7.10;;
55037;SDS011;40937;53.594;10.034;2023-06-26T03:55:17;8.25;;;7.45;;
55037;SDS011;40937;53.594;10.034;2023-06-26T04:00:22;7.75;;;7.25;;
55037;SDS011;40937;53.594;10.034;2023-06-26T04:03:00;7.88;;;7.07;;
55037;SDS011;40937;53.594;10.034;2023-06-26T04:05:33;8.48;;;7.68;;
55037;SDS011;40937;53.594;10.034;2023-06-26T04:08:29;8.15;;;7.38;;
55037;SDS011;40937;53.594;10.034;2023-06-26T04:10:57;7.68;;;7.18;;
55037;SDS011;40937;53.594;10.034;2023-06-26T04:13:26;7.45;;;6.95;;
55037;SDS011;40937;53.594;10.034;2023-06-26T04:16:01;8.23;;;7.47;;
55037;SDS011;40937;53.594;10.034;2023-06-26T04:18:48;8.10;;;7.50;;
55037;SDS011;40937;53.594;10.034;2023-06-26T04:21:33;8.00;;;7.40;;
55037;SDS011;40937;53.594;10.034;2023-06-26T04:24:11;8.15;;;7.40;;
55037;SDS011;40937;53.594;10.034;2023-06-26T04:26:42;7.00;;;6.30;;
55037;SDS011;40937;53.594;10.034;2023-06-26T04:29:15;7.43;;;6.93;;
55037;SDS011;40937;53.594;10.034;2023-06-26T04:32:21;7.90;;;7.20;;
55037;SDS011;40937;53.594;10.034;2023-06-26T04:38:41;7.85;;;7.32;;
55037;SDS011;40937;53.594;10.034;2023-06-26T04:41:49;9.60;;;7.55;;
55037;SDS011;40937;53.594;10.034;2023-06-26T04:45:51;8.30;;;7.45;;
55037;SDS011;40937;53.594;10.034;2023-06-26T04:48:45;9.20;;;8.50;;
55037;SDS011;40937;53.594;10.034;2023-06-26T04:51:21;10.43;;;7.97;;
55037;SDS011;40937;53.594;10.034;2023-06-26T04:53:59;8.70;;;7.85;;
55037;SDS011;40937;53.594;10.034;2023-06-26T04:56:36;8.68;;;7.97;;
55037;SDS011;40937;53.594;10.034;2023-06-26T04:59:14;9.57;;;7.28;;
55037;SDS011;40937;53.594;10.034;2023-06-26T05:01:58;7.93;;;7.05;;
55037;SDS011;40937;53.594;10.034;2023-06-26T05:04:30;9.95;;;7.03;;
55037;SDS011;40937;53.594;10.034;2023-06-26T05:07:01;8.85;;;7.50;;
55037;SDS011;40937;53.594;10.034;2023-06-26T05:09:33;8.32;;;7.72;;
55037;SDS011;40937;53.594;10.034;2023-06-26T05:12:04;9.18;;;8.10;;
55037;SDS011;40937;53.594;10.034;2023-06-26T05:14:32;7.65;;;6.88;;
55037;SDS011;40937;53.594;10.034;2023-06-26T05:17:03;7.85;;;7.25;;
55037;SDS011;40937;53.594;10.034;2023-06-26T05:19:32;7.43;;;6.82;;
55037;SDS011;40937;53.594;10.034;2023-06-26T05:21:59;12.95;;;7.10;;
55037;SDS011;40937;53.594;10.034;2023-06-26T05:24:32;7.93;;;7.32;;
55037;SDS011;40937;53.594;10.034;2023-06-26T05:27:03;9.07;;;7.93;;
55037;SDS011;40937;53.594;10.034;2023-06-26T05:29:33;8.35;;;6.90;;
55037;SDS011;40937;53.594;10.034;2023-06-26T05:32:00;8.05;;;7.43;;
55037;SDS011;40937;53.594;10.034;2023-06-26T05:34:36;9.32;;;7.68;;
55037;SDS011;40937;53.594;10.034;2023-06-26T05:37:11;10.63;;;8.02;;
55037;SDS011;40937;53.594;10.034;2023-06-26T05:39:56;8.35;;;7.55;;
55037;SDS011;40937;53.594;10.034;2023-06-26T05:42:31;10.02;;;7.20;;
55037;SDS011;40937;53.594;10.034;2023-06-26T05:45:01;8.30;;;7.50;;
55037;SDS011;40937;53.594;10.034;2023-06-26T05:47:28;9.18;;;8.10;;
55037;SDS011;40937;53.594;10.034;2023-06-26T05:50:00;12.50;;;8.25;;
55037;SDS011;40937;53.594;10.034;2023-06-26T05:52:28;11.05;;;7.32;;
55037;SDS011;40937;53.594;10.034;2023-06-26T05:54:56;9.75;;;7.30;;
55037;SDS011;40937;53.594;10.034;2023-06-26T05:57:25;13.23;;;7.38;;
55037;SDS011;40937;53.594;10.034;2023-06-26T05:59:54;9.57;;;8.10;;
55037;SDS011;40937;53.594;10.034;2023-06-26T06:02:22;11.63;;;6.65;;
55037;SDS011;40937;53.594;10.034;2023-06-26T06:04:49;11.02;;;7.85;;
55037;SDS011;40937;53.594;10.034;2023-06-26T06:07:18;10.75;;;6.93;;
55037;SDS011;40937;53.594;10.034;2023-06-26T06:09:45;7.85;;;7.15;;
55037;SDS011;40937;53.594;10.034;2023-06-26T06:12:15;7.47;;;6.88;;
55037;SDS011;40937;53.594;10.034;2023-06-26T06:14:46;9.32;;;7.43;;
55037;SDS011;40937;53.594;10.034;2023-06-26T06:17:16;9.38;;;7.53;;
55037;SDS011;40937;53.594;10.034;2023-06-26T06:52:49;7.38;;;6.88;;
55037;SDS011;40937;53.594;10.034;2023-06-26T06:55:16;6.93;;;6.32;;
55037;SDS011;40937;53.594;10.034;2023-06-26T06:57:44;7.75;;;7.05;;
55037;SDS011;40937;53.594;10.034;2023-06-26T07:00:12;7.72;;;7.05;;
55037;SDS011;40937;53.594;10.034;2023-06-26T07:02:41;7.75;;;6.60;;
55037;SDS011;40937;53.594;10.034;2023-06-26T07:05:10;7.85;;;7.22;;
55037;SDS011;40937;53.594;10.034;2023-06-26T07:07:39;8.00;;;7.10;;
55037;SDS011;40937;53.594;10.034;2023-06-26T07:10:07;7.40;;;6.65;;
55037;SDS011;40937;53.594;10.034;2023-06-26T07:12:36;7.53;;;6.93;;
55037;SDS011;40937;53.594;10.034;2023-06-26T07:15:04;7.15;;;6.38;;
55037;SDS011;40937;53.594;10.034;2023-06-26T07:17:32;6.93;;;6.40;;
55037;SDS011;40937;53.594;10.034;2023-06-26T07:20:00;7.53;;;6.93;;
55037;SDS011;40937;53.594;10.034;2023-06-26T07:22:29;6.60;;;6.00;;
55037;SDS011;40937;53.594;10.034;2023-06-26T07:24:58;7.90;;;7.10;;
55037;SDS011;40937;53.594;10.034;2023-06-26T07:27:25;7.95;;;7.10;;
55037;SDS011;40937;53.594;10.034;2023-06-26T07:29:52;8.07;;;6.45;;
55037;SDS011;40937;53.594;10.034;2023-06-26T07:32:20;7.35;;;6.35;;
55037;SDS011;40937;53.594;10.034;2023-06-26T07:34:47;6.70;;;6.15;;
55037;SDS011;40937;53.594;10.034;2023-06-26T07:37:14;7.90;;;7.18;;
55037;SDS011;40937;53.594;10.034;2023-06-26T07:39:41;7.63;;;6.90;;
55037;SDS011;40937;53.594;10.034;2023-06-26T07:42:10;7.30;;;6.63;;
55037;SDS011;40937;53.594;10.034;2023-06-26T07:44:37;7.50;;;6.72;;
55037;SDS011;40937;53.594;10.034;2023-06-26T07:47:04;7.70;;;7.10;;
55037;SDS011;40937;53.594;10.034;2023-06-26T07:49:32;7.57;;;6.75;;
55037;SDS011;40937;53.594;10.034;2023-06-26T07:51:59;8.10;;;7.32;;
55037;SDS011;40937;53.594;10.034;2023-06-26T07:54:26;7.43;;;6.72;;
55037;SDS011;40937;53.594;10.034;2023-06-26T07:56:54;7.72;;;6.95;;
55037;SDS011;40937;53.594;10.034;2023-06-26T07:59:24;7.60;;;6.78;;
55037;SDS011;40937;53.594;10.034;2023-06-26T08:01:53;6.63;;;6.13;;
55037;SDS011;40937;53.594;10.034;2023-06-26T08:04:21;7.90;;;6.43;;
55037;SDS011;40937;53.594;10.034;2023-06-26T08:06:49;7.25;;;6.82;;
55037;SDS011;40937;53.594;10.034;2023-06-26T08:09:18;7.45;;;6.85;;
55037;SDS011;40937;53.594;10.034;2023-06-26T08:11:46;6.85;;;6.35;;
55037;SDS011;40937;53.594;10.034;2023-06-26T08:14:14;11.93;;;7.03;;
55037;SDS011;40937;53.594;10.034;2023-06-26T08:16:43;6.93;;;6.43;;
55037;SDS011;40937;53.594;10.034;2023-06-26T08:19:10;11.27;;;6.25;;
55037;SDS011;40937;53.594;10.034;2023-06-26T08:21:40;7.50;;;6.75;;
55037;SDS011;40937;53.594;10.034;2023-06-26T08:24:11;14.13;;;7.22;;
55037;SDS011;40937;53.594;10.034;2023-06-26T08:26:39;7.70;;;7.00;;
55037;SDS011;40937;53.594;10.034;2023-06-26T08:29:06;7.43;;;6.78;;
55037;SDS011;40937;53.594;10.034;2023-06-26T08:31:34;8.27;;;7.25;;
55037;SDS011;40937;53.594;10.034;2023-06-26T08:34:03;7.20;;;6.47;;
55037;SDS011;40937;53.594;10.034;2023-06-26T08:36:30;7.20;;;6.68;;
55037;SDS011;40937;53.594;10.034;2023-06-26T08:38:58;7.35;;;6.20;;
55037;SDS011;40937;53.594;10.034;2023-06-26T08:41:25;10.40;;;6.63;;
55037;SDS011;40937;53.594;10.034;2023-06-26T08:43:53;7.40;;;6.75;;
55037;SDS011;40937;53.594;10.034;2023-06-26T08:46:20;8.05;;;6.78;;
55037;SDS011;40937;53.594;10.034;2023-06-26T08:48:48;9.68;;;6.82;;
55037;SDS011;40937;53.594;10.034;2023-06-26T08:51:19;7.63;;;7.07;;
55037;SDS011;40937;53.594;10.034;2023-06-26T08:53:50;7.63;;;7.03;;
55037;SDS011;40937;53.594;10.034;2023-06-26T08:56:24;6.93;;;6.32;;
55037;SDS011;40937;53.594;10.034;2023-06-26T08:58:54;6.75;;;6.28;;
55037;SDS011;40937;53.594;10.034;2023-06-26T09:01:22;8.80;;;6.75;;
55037;SDS011;40937;53.594;10.034;2023-06-26T09:03:50;7.35;;;6.78;;
55037;SDS011;40937;53.594;10.034;2023-06-26T09:06:19;7.07;;;6.50;;
55037;SDS011;40937;53.594;10.034;2023-06-26T09:08:47;8.10;;;6.80;;
55037;SDS011;40937;53.594;10.034;2023-06-26T09:11:14;7.03;;;6.40;;
55037;SDS011;40937;53.594;10.034;2023-06-26T09:13:41;8.68;;;6.90;;
55037;SDS011;40937;53.594;10.034;2023-06-26T09:16:10;8.13;;;7.32;;
55037;SDS011;40937;53.594;10.034;2023-06-26T09:18:37;8.10;;;7.22;;
55037;SDS011;40937;53.594;10.034;2023-06-26T09:21:05;13.60;;;7.78;;
55037;SDS011;40937;53.594;10.034;2023-06-26T09:23:35;8.80;;;7.55;;
55037;SDS011;40937;53.594;10.034;2023-06-26T09:26:02;9.10;;;7.72;;
55037;SDS011;40937;53.594;10.034;2023-06-26T09:28:30;9.65;;;7.35;;
55037;SDS011;40937;53.594;10.034;2023-06-26T09:31:00;10.32;;;9.43;;
55037;SDS011;40937;53.594;10.034;2023-06-26T09:33:33;9.32;;;8.50;;
55037;SDS011;40937;53.594;10.034;2023-06-26T09:36:04;13.32;;;8.73;;
55037;SDS011;40937;53.594;10.034;2023-06-26T09:38:35;9.15;;;8.52;;
55037;SDS011;40937;53.594;10.034;2023-06-26T09:41:02;17.02;;;7.90;;
55037;SDS011;40937;53.594;10.034;2023-06-26T09:43:30;9.05;;;8.23;;
55037;SDS011;40937;53.594;10.034;2023-06-26T09:45:58;9.75;;;8.55;;
55037;SDS011;40937;53.594;10.034;2023-06-26T09:48:27;13.75;;;9.00;;
55037;SDS011;40937;53.594;10.034;2023-06-26T09:50:56;13.95;;;10.95;;
55037;SDS011;40937;53.594;10.034;2023-06-26T09:53:27;18.95;;;9.82;;
55037;SDS011;40937;53.594;10.034;2023-06-26T09:55:56;20.27;;;10.73;;
55037;SDS011;40937;53.594;10.034;2023-06-26T09:58:23;10.82;;;9.73;;
55037;SDS011;40937;53.594;10.034;2023-06-26T10:00:51;10.13;;;9.23;;
55037;SDS011;40937;53.594;10.034;2023-06-26T10:03:19;10.35;;;9.35;;
55037;SDS011;40937;53.594;10.034;2023-06-26T10:05:46;12.50;;;9.10;;
55037;SDS011;40937;53.594;10.034;2023-06-26T10:08:14;10.95;;;9.32;;
55037;SDS011;40937;53.594;10.034;2023-06-26T10:10:43;12.48;;;9.07;;
55037;SDS011;40937;53.594;10.034;2023-06-26T10:13:15;14.95;;;10.25;;
55037;SDS011;40937;53.594;10.034;2023-06-26T10:15:47;10.68;;;9.55;;
55037;SDS011;40937;53.594;10.034;2023-06-26T10:18:17;13.30;;;10.43;;
55037;SDS011;40937;53.594;10.034;2023-06-26T10:20:46;22.83;;;8.68;;
55037;SDS011;40937;53.594;10.034;2023-06-26T10:23:15;11.52;;;10.48;;
55037;SDS011;40937;53.594;10.034;2023-06-26T10:25:46;12.13;;;10.88;;
55037;SDS011;40937;53.594;10.034;2023-06-26T10:28:19;11.45;;;10.52;;
55037;SDS011;40937;53.594;10.034;2023-06-26T10:30:48;15.38;;;9.88;;
55037;SDS011;40937;53.594;10.034;2023-06-26T10:33:17;12.48;;;8.00;;
55037;SDS011;40937;53.594;10.034;2023-06-26T10:35:46;10.10;;;7.00;;
55037;SDS011;40937;53.594;10.034;2023-06-26T10:38:13;14.63;;;7.35;;
55037;SDS011;40937;53.594;10.034;2023-06-26T10:40:41;7.57;;;6.88;;
55037;SDS011;40937;53.594;10.034;2023-06-26T10:43:09;6.82;;;6.15;;
55037;SDS011;40937;53.594;10.034;2023-06-26T10:45:42;9.20;;;6.25;;
55037;SDS011;40937;53.594;10.034;2023-06-26T10:48:12;8.00;;;5.78;;
55037;SDS011;40937;53.594;10.034;2023-06-26T10:50:41;10.15;;;5.75;;
55037;SDS011;40937;53.594;10.034;2023-06-26T10:53:12;5.75;;;5.32;;
55037;SDS011;40937;53.594;10.034;2023-06-26T10:55:47;5.75;;;5.30;;
55037;SDS011;40937;53.594;10.034;2023-06-26T10:58:34;6.15;;;5.55;;
55037;SDS011;40937;53.594;10.034;2023-06-26T11:01:18;6.07;;;5.45;;
55037;SDS011;40937;53.594;10.034;2023-06-26T11:03:47;5.53;;;5.07;;
55037;SDS011;40937;53.594;10.034;2023-06-26T11:06:17;7.90;;;5.50;;
55037;SDS011;40937;53.594;10.034;2023-06-26T11:08:46;6.43;;;5.35;;
55037;SDS011;40937;53.594;10.034;2023-06-26T11:11:14;8.05;;;6.35;;
55037;SDS011;40937;53.594;10.034;2023-06-26T11:13:42;7.70;;;7.00;;
55037;SDS011;40937;53.594;10.034;2023-06-26T11:16:09;8.57;;;6.97;;
55037;SDS011;40937;53.594;10.034;2023-06-26T11:18:39;14.15;;;7.18;;
55037;SDS011;40937;53.594;10.034;2023-06-26T11:21:07;8.40;;;7.60;;
55037;SDS011;40937;53.594;10.034;2023-06-26T11:23:36;9.48;;;7.05;;
55037;SDS011;40937;53.594;10.034;2023-06-26T11:26:14;10.02;;;6.57;;
55037;SDS011;40937;53.594;10.034;2023-06-26T11:28:47;10.15;;;6.10;;
55037;SDS011;40937;53.594;10.034;2023-06-26T11:31:25;11.57;;;6.40;;
55037;SDS011;40937;53.594;10.034;2023-06-26T11:33:55;16.42;;;6.75;;
55037;SDS011;40937;53.594;10.034;2023-06-26T11:36:23;10.63;;;5.45;;
55037;SDS011;40937;53.594;10.034;2023-06-26T11:38:54;11.55;;;5.55;;
55037;SDS011;40937;53.594;10.034;2023-06-26T11:41:22;15.40;;;6.18;;
55037;SDS011;40937;53.594;10.034;2023-06-26T11:43:50;12.73;;;6.47;;
55037;SDS011;40937;53.594;10.034;2023-06-26T11:46:19;8.00;;;5.35;;
55037;SDS011;40937;53.594;10.034;2023-06-26T11:48:46;12.02;;;5.65;;
55037;SDS011;40937;53.594;10.034;2023-06-26T11:51:15;14.15;;;6.05;;
55037;SDS011;40937;53.594;10.034;2023-06-26T11:53:43;13.00;;;5.35;;
55037;SDS011;40937;53.594;10.034;2023-06-26T11:56:11;10.70;;;5.80;;
55037;SDS011;40937;53.594;10.034;2023-06-26T11:58:59;12.40;;;4.32;;
55037;SDS011;40937;53.594;10.034;2023-06-26T12:01:30;11.82;;;4.90;;
55037;SDS011;40937;53.594;10.034;2023-06-26T12:04:00;10.88;;;4.28;;
55037;SDS011;40937;53.594;10.034;2023-06-26T12:06:31;12.25;;;3.95;;
55037;SDS011;40937;53.594;10.034;2023-06-26T12:09:01;9.98;;;3.65;;
55037;SDS011;40937;53.594;10.034;2023-06-26T12:11:30;9.55;;;3.67;;
55037;SDS011;40937;53.594;10.034;2023-06-26T12:13:59;7.53;;;3.42;;
55037;SDS011;40937;53.594;10.034;2023-06-26T12:16:26;11.30;;;3.65;;
55037;SDS011;40937;53.594;10.034;2023-06-26T12:18:57;8.15;;;3.35;;
55037;SDS011;40937;53.594;10.034;2023-06-26T12:21:28;12.43;;;3.50;;
55037;SDS011;40937;53.594;10.034;2023-06-26T12:24:12;11.82;;;3.70;;
55037;SDS011;40937;53.594;10.034;2023-06-26T12:26:41;10.95;;;3.78;;
55037;SDS011;40937;53.594;10.034;2023-06-26T12:29:10;7.55;;;3.28;;
55037;SDS011;40937;53.594;10.034;2023-06-26T12:31:42;10.43;;;3.70;;
55037;SDS011;40937;53.594;10.034;2023-06-26T12:34:11;8.00;;;3.30;;
55037;SDS011;40937;53.594;10.034;2023-06-26T12:36:44;10.63;;;3.25;;
55037;SDS011;40937;53.594;10.034;2023-06-26T12:39:15;13.95;;;3.60;;
55037;SDS011;40937;53.594;10.034;2023-06-26T12:41:46;7.78;;;3.60;;
55037;SDS011;40937;53.594;10.034;2023-06-26T12:44:18;7.43;;;3.03;;
55037;SDS011;40937;53.594;10.034;2023-06-26T12:46:47;8.15;;;3.22;;
55037;SDS011;40937;53.594;10.034;2023-06-26T12:49:16;9.43;;;3.20;;
55037;SDS011;40937;53.594;10.034;2023-06-26T12:51:45;5.05;;;2.78;;
55037;SDS011;40937;53.594;10.034;2023-06-26T12:54:12;9.98;;;3.17;;
55037;SDS011;40937;53.594;10.034;2023-06-26T12:56:39;9.23;;;2.95;;
55037;SDS011;40937;53.594;10.034;2023-06-26T12:59:07;8.68;;;2.80;;
55037;SDS011;40937;53.594;10.034;2023-06-26T13:01:34;4.85;;;2.45;;
55037;SDS011;40937;53.594;10.034;2023-06-26T13:04:01;7.80;;;2.85;;
55037;SDS011;40937;53.594;10.034;2023-06-26T13:06:29;8.93;;;2.65;;
55037;SDS011;40937;53.594;10.034;2023-06-26T13:08:58;8.07;;;3.03;;
55037;SDS011;40937;53.594;10.034;2023-06-26T13:11:26;8.13;;;3.33;;
55037;SDS011;40937;53.594;10.034;2023-06-26T13:13:53;7.90;;;2.65;;
55037;SDS011;40937;53.594;10.034;2023-06-26T13:16:20;10.80;;;2.80;;
55037;SDS011;40937;53.594;10.034;2023-06-26T13:18:47;7.43;;;2.88;;
55037;SDS011;40937;53.594;10.034;2023-06-26T13:21:14;8.82;;;3.05;;
55037;SDS011;40937;53.594;10.034;2023-06-26T13:23:43;8.82;;;2.80;;
55037;SDS011;40937;53.594;10.034;2023-06-26T13:26:12;4.47;;;2.22;;
55037;SDS011;40937;53.594;10.034;2023-06-26T13:28:39;4.97;;;2.25;;
55037;SDS011;40937;53.594;10.034;2023-06-26T13:31:06;6.97;;;2.72;;
55037;SDS011;40937;53.594;10.034;2023-06-26T13:33:33;7.72;;;2.33;;
55037;SDS011;40937;53.594;10.034;2023-06-26T13:36:00;6.90;;;2.58;;
55037;SDS011;40937;53.594;10.034;2023-06-26T13:38:32;8.35;;;2.58;;
55037;SDS011;40937;53.594;10.034;2023-06-26T13:41:00;7.38;;;2.95;;
55037;SDS011;40937;53.594;10.034;2023-06-26T13:43:29;11.18;;;2.58;;
55037;SDS011;40937;53.594;10.034;2023-06-26T13:45:56;5.05;;;2.30;;
55037;SDS011;40937;53.594;10.034;2023-06-26T13:48:24;6.85;;;2.35;;
55037;SDS011;40937;53.594;10.034;2023-06-26T13:50:51;4.53;;;2.40;;
55037;SDS011;40937;53.594;10.034;2023-06-26T13:53:19;7.38;;;2.30;;
55037;SDS011;40937;53.594;10.034;2023-06-26T13:55:47;9.90;;;3.03;;
55037;SDS011;40937;53.594;10.034;2023-06-26T13:58:14;4.72;;;1.90;;
55037;SDS011;40937;53.594;10.034;2023-06-26T14:00:43;5.20;;;2.30;;
55037;SDS011;40937;53.594;10.034;2023-06-26T14:03:10;4.15;;;2.00;;
55037;SDS011;40937;53.594;10.034;2023-06-26T14:05:38;9.80;;;2.58;;
55037;SDS011;40937;53.594;10.034;2023-06-26T14:08:06;5.75;;;2.65;;
55037;SDS011;40937;53.594;10.034;2023-06-26T14:10:34;3.80;;;1.95;;
55037;SDS011;40937;53.594;10.034;2023-06-26T14:13:02;3.78;;;2.00;;
55037;SDS011;40937;53.594;10.034;2023-06-26T14:15:30;6.10;;;1.58;;
55037;SDS011;40937;53.594;10.034;2023-06-26T14:17:58;4.45;;;2.08;;
55037;SDS011;40937;53.594;10.034;2023-06-26T14:20:28;4.57;;;1.75;;
55037;SDS011;40937;53.594;10.034;2023-06-26T14:22:58;3.33;;;1.73;;
55037;SDS011;40937;53.594;10.034;2023-06-26T14:25:26;4.13;;;2.13;;
55037;SDS011;40937;53.594;10.034;2023-06-26T14:27:54;4.57;;;2.35;;
55037;SDS011;40937;53.594;10.034;2023-06-26T14:30:22;3.25;;;2.05;;
55037;SDS011;40937;53.594;10.034;2023-06-26T14:32:50;4.28;;;2.17;;
55037;SDS011;40937;53.594;10.034;2023-06-26T14:35:18;3.22;;;1.42;;
55037;SDS011;40937;53.594;10.034;2023-06-26T14:37:47;5.93;;;2.35;;
55037;SDS011;40937;53.594;10.034;2023-06-26T14:40:14;4.32;;;2.38;;
55037;SDS011;40937;53.594;10.034;2023-06-26T14:42:41;5.63;;;1.75;;
55037;SDS011;40937;53.594;10.034;2023-06-26T14:45:11;7.03;;;1.70;;
55037;SDS011;40937;53.594;10.034;2023-06-26T14:47:38;2.97;;;1.92;;
55037;SDS011;40937;53.594;10.034;2023-06-26T14:50:05;4.18;;;1.50;;
55037;SDS011;40937;53.594;10.034;2023-06-26T14:52:36;6.57;;;1.90;;
55037;SDS011;40937;53.594;10.034;2023-06-26T14:55:03;2.72;;;1.80;;
55037;SDS011;40937;53.594;10.034;2023-06-26T14:57:31;6.90;;;2.00;;
55037;SDS011;40937;53.594;10.034;2023-06-26T14:59:58;4.82;;;1.95;;
55037;SDS011;40937;53.594;10.034;2023-06-26T15:02:26;4.18;;;1.92;;
55037;SDS011;40937;53.594;10.034;2023-06-26T15:04:53;3.05;;;1.52;;
55037;SDS011;40937;53.594;10.034;2023-06-26T15:07:20;4.45;;;1.58;;
55037;SDS011;40937;53.594;10.034;2023-06-26T15:09:49;3.97;;;2.00;;
55037;SDS011;40937;53.594;10.034;2023-06-26T15:12:16;7.63;;;1.88;;
55037;SDS011;40937;53.594;10.034;2023-06-26T15:14:43;5.65;;;2.35;;
55037;SDS011;40937;53.594;10.034;2023-06-26T15:17:10;8.65;;;1.98;;
55037;SDS011;40937;53.594;10.034;2023-06-26T15:19:37;3.10;;;1.88;;
55037;SDS011;40937;53.594;10.034;2023-06-26T15:22:04;5.10;;;1.95;;
55037;SDS011;40937;53.594;10.034;2023-06-26T15:24:32;3.97;;;2.08;;
55037;SDS011;40937;53.594;10.034;2023-06-26T15:27:00;3.60;;;1.80;;